Site contains unofficial IBTrACS data. Visit the IBTrACS Website to access archived data.

1869 Hurricane NOT_NAMED (1869270N18308)


IBTrACS version v04r00. Visit IBTrACS website for data access.
Please direct all questions to the IBTrACS Q and A forum

Storm track - Intensity - Wind Radii - Intensity Data - Source Data - All data

Summary Information

Storm ID 1869270N18308
Start Sep 26 12Z
Landfall Oct 2 09Z, Oct 4 23Z
Max Intensity 90 kt (Oct 4 00Z), 982 mb (Oct 3 06Z)
End Oct 5 12Z
ATCF IDs ,AL101869
Track status Best track data.

Storm track plot

Map of storm track

Intensity plots

Map of storm track

Radial wind information

No radial wind information for this storm


Position and Intensity Table

BASIN ISO_TIME_________ NATURE LAT LON WMO WIND USA WIND MLC WIND MLC PRES
degrees north degrees east kts kts kts mb
NA 1869-09-26 12:00:00 TS 17.90 -51.70 45
NA 15:00:00 TS 18.10 -52.30 45
NA 18:00:00 TS 18.30 -52.90 45
NA 21:00:00 TS 18.50 -53.50 47
NA 1869-09-27 00:00:00 TS 18.70 -54.10 50
NA 03:00:00 TS 18.91 -54.71 50
NA 06:00:00 TS 19.10 -55.30 50
NA 09:00:00 TS 19.26 -55.85 50
NA 12:00:00 TS 19.40 -56.40 50
NA 15:00:00 TS 19.55 -57.00 50
NA 18:00:00 TS 19.70 -57.60 50
NA 21:00:00 TS 19.85 -58.15 50
NA 1869-09-28 00:00:00 TS 20.00 -58.70 50
NA 03:00:00 TS 20.16 -59.30 50
NA 06:00:00 TS 20.30 -59.90 50
NA 09:00:00 TS 20.40 -60.45 50
NA 12:00:00 TS 20.50 -61.00 50
NA 15:00:00 TS 20.65 -61.60 50
NA 18:00:00 TS 20.80 -62.20 50
NA 21:00:00 TS 20.90 -62.76 50
NA 1869-09-29 00:00:00 TS 21.00 -63.30 50
NA 03:00:00 TS 21.15 -63.85 52
NA 06:00:00 TS 21.30 -64.40 55
NA 09:00:00 TS 21.39 -64.94 55
NA 12:00:00 TS 21.50 -65.50 55
NA 15:00:00 TS 21.69 -66.10 55
NA 18:00:00 TS 21.90 -66.70 55
NA 21:00:00 TS 22.06 -67.26 55
NA 1869-09-30 00:00:00 TS 22.20 -67.80 55
NA 03:00:00 TS 22.35 -68.35 55
NA 06:00:00 TS 22.50 -68.90 55
NA 09:00:00 TS 22.65 -69.44 55
NA 12:00:00 TS 22.80 -70.00 55
NA 15:00:00 TS 22.95 -70.60 55
NA 18:00:00 TS 23.10 -71.20 55
NA 21:00:00 TS 23.25 -71.76 55
NA 1869-10-01 00:00:00 TS 23.40 -72.30 55
NA 03:00:00 TS 23.55 -72.85 55
NA 06:00:00 TS 23.70 -73.40 55
NA 09:00:00 TS 23.86 -73.96 55
NA 12:00:00 TS 24.00 -74.50 55
NA 15:00:00 TS 24.11 -74.97 55
NA 18:00:00 TS 24.20 -75.40 55
NA 21:00:00 TS 24.25 -75.85 57
NA 1869-10-02 00:00:00 TS 24.30 -76.30 60
NA 03:00:00 TS 24.40 -76.76 60
NA 06:00:00 TS 24.50 -77.20 60
NA 09:00:00 TS 24.50 -77.65 60
NA 12:00:00 TS 24.60 -78.00 60
NA 15:00:00 TS 24.96 -78.18 60
NA 18:00:00 TS 25.50 -78.20 60
NA 21:00:00 TS 26.13 -78.09 62
NA 1869-10-03 00:00:00 TS 26.80 -77.90 65
NA 03:00:00 TS 27.40 -77.79 70
NA 06:00:00 TS 28.00 -77.60 75 982
NA 09:00:00 TS 28.64 -77.19 75
NA 12:00:00 TS 29.30 -76.70 75
NA 15:00:00 TS 29.94 -76.28 75
NA 18:00:00 TS 30.60 -75.90 75
NA 21:00:00 TS 31.21 -75.59 77
NA 1869-10-04 00:00:00 TS 31.83 -75.30 90 90 80
NA 03:00:00 TS 33.05 -74.36 90 82
NA 06:00:00 TS 34.50 -73.32 90 90 85
NA 09:00:00 TS 36.05 -72.46 90 85
NA 12:00:00 TS 37.63 -71.83 90 90 85
NA 15:00:00 TS 39.05 -71.36 90 85
NA 18:00:00 TS 40.63 -70.90 90 90 85
NA 19:00:00 TS 41.27 -70.69 90 90 83
NA 20:00:00 TS 41.79 -70.44 90 90 81
NA 21:00:00 TS 42.49 -70.18 90 80
NA 23:00:00 TS 43.90 -69.61 90 90 76
NA 1869-10-05 00:00:00 MX 44.33 -69.33 80 80 75
NA 03:00:00 MX 45.75 -68.45 70 62
NA 06:00:00 MX 47.00 -67.33 60 60 50
NA 09:00:00 MX 47.68 -65.98 55 50
NA 12:00:00 MX 48.00 -64.50 50 50 50

Source Information

Agency Information
USA hurdat2-1851-2019-042820.txt:Line=1920:UNNAMED
TOKYO
CMA
HKO
NEWDELHI
REUNION
BOM
NADI
WELLINGTON
DS824
TD9636
TD9635
NEUMANN
MLC

All available IBTrACS Data

SEASON BASIN SUBBASIN ISO_TIME_________ NATURE LAT LON WMO WIND WMO AGENCY DIST2LAND LANDFALL IFLAG USA AGENCY USA ATCF_ID USA LAT USA LON USA RECORD USA STATUS USA WIND USA SSHS MLC LAT MLC LON MLC CLASS MLC WIND MLC PRES STORM SPEED STORM DIR
Year degrees north degrees east kts km km degrees north degrees east kts 1 degrees north degrees east kts mb kts degrees
1869 NA NA 1869-09-26 12:00:00 TS 17.90 -51.70 1285 1250 _____________O -1 17.90 -51.70 TS 45 12 289
1869 NA NA 15:00:00 TS 18.10 -52.30 1250 1217 _____________P -1 18.10 -52.30 TS 45 12 289
1869 NA NA 18:00:00 TS 18.30 -52.90 1217 1188 _____________O -1 18.30 -52.90 TS 45 12 289
1869 NA NA 21:00:00 TS 18.50 -53.50 1188 1162 _____________P -1 18.50 -53.50 TS 47 12 289
1869 NA NA 1869-09-27 00:00:00 TS 18.70 -54.10 1162 1140 _____________O -1 18.70 -54.10 TS 50 12 290
1869 NA NA 03:00:00 TS 18.91 -54.71 1140 1087 _____________P -1 18.91 -54.71 TS 50 12 289
1869 NA NA 06:00:00 TS 19.10 -55.30 1087 1035 _____________O -1 19.10 -55.30 TS 50 11 288
1869 NA NA 09:00:00 TS 19.26 -55.85 1025 974 _____________P -1 19.26 -55.85 TS 50 11 286
1869 NA NA 12:00:00 TS 19.40 -56.40 974 912 _____________O -1 19.40 -56.40 TS 50 11 285
1869 NA NA 15:00:00 TS 19.55 -57.00 912 853 _____________P -1 19.55 -57.00 TS 50 12 285
1869 NA NA 18:00:00 TS 19.70 -57.60 853 803 _____________O -1 19.70 -57.60 TS 50 11 285
1869 NA NA 21:00:00 TS 19.85 -58.15 793 746 _____________P -1 19.85 -58.15 TS 50 11 286
1869 NA NA 1869-09-28 00:00:00 TS 20.00 -58.70 746 688 _____________O -1 20.00 -58.70 TS 50 11 286
1869 NA NA 03:00:00 TS 20.16 -59.30 691 634 _____________P -1 20.16 -59.30 TS 50 12 285
1869 NA NA 06:00:00 TS 20.30 -59.90 634 589 _____________O -1 20.30 -59.90 TS 50 11 283
1869 NA NA 09:00:00 TS 20.40 -60.45 579 536 _____________P -1 20.40 -60.45 TS 50 11 281
1869 NA NA 12:00:00 TS 20.50 -61.00 536 486 _____________O -1 20.50 -61.00 TS 50 11 283
1869 NA NA 15:00:00 TS 20.65 -61.60 486 445 _____________P -1 20.65 -61.60 TS 50 12 285
1869 NA NA 18:00:00 TS 20.80 -62.20 445 412 _____________O -1 20.80 -62.20 TS 50 11 283
1869 NA NA 21:00:00 TS 20.90 -62.76 405 377 _____________P -1 20.90 -62.76 TS 50 10 281
1869 NA NA 1869-09-29 00:00:00 TS 21.00 -63.30 377 355 _____________O -1 21.00 -63.30 TS 50 11 284
1869 NA NA 03:00:00 TS 21.15 -63.85 355 345 _____________P -1 21.15 -63.85 TS 52 11 286
1869 NA NA 06:00:00 TS 21.30 -64.40 347 337 _____________O -1 21.30 -64.40 TS 55 10 283
1869 NA NA 09:00:00 TS 21.39 -64.94 343 338 _____________P -1 21.39 -64.94 TS 55 10 281
1869 NA NA 12:00:00 TS 21.50 -65.50 346 346 _____________O -1 21.50 -65.50 TS 55 11 286
1869 NA NA 15:00:00 TS 21.69 -66.10 369 369 _____________P -1 21.69 -66.10 TS 55 12 290
1869 NA NA 18:00:00 TS 21.90 -66.70 391 372 _____________O -1 21.90 -66.70 TS 55 11 289
1869 NA NA 21:00:00 TS 22.06 -67.26 375 359 _____________P -1 22.06 -67.26 TS 55 11 286
1869 NA NA 1869-09-30 00:00:00 TS 22.20 -67.80 359 349 _____________O -1 22.20 -67.80 TS 55 11 286
1869 NA NA 03:00:00 TS 22.35 -68.35 344 340 _____________P -1 22.35 -68.35 TS 55 11 286
1869 NA NA 06:00:00 TS 22.50 -68.90 343 336 _____________O -1 22.50 -68.90 TS 55 11 287
1869 NA NA 09:00:00 TS 22.65 -69.44 336 334 _____________P -1 22.65 -69.44 TS 55 11 286
1869 NA NA 12:00:00 TS 22.80 -70.00 341 311 _____________O -1 22.80 -70.00 TS 55 11 286
1869 NA NA 15:00:00 TS 22.95 -70.60 311 281 _____________P -1 22.95 -70.60 TS 55 11 285
1869 NA NA 18:00:00 TS 23.10 -71.20 281 260 _____________O -1 23.10 -71.20 TS 55 11 286
1869 NA NA 21:00:00 TS 23.25 -71.76 255 252 _____________P -1 23.25 -71.76 TS 55 11 287
1869 NA NA 1869-10-01 00:00:00 TS 23.40 -72.30 256 251 _____________O -1 23.40 -72.30 TS 55 10 287
1869 NA NA 03:00:00 TS 23.55 -72.85 257 257 _____________P -1 23.55 -72.85 TS 55 11 287
1869 NA NA 06:00:00 TS 23.70 -73.40 280 280 _____________O -1 23.70 -73.40 TS 55 11 287
1869 NA NA 09:00:00 TS 23.86 -73.96 312 312 _____________P -1 23.86 -73.96 TS 55 11 287
1869 NA NA 12:00:00 TS 24.00 -74.50 329 287 _____________O -1 24.00 -74.50 TS 55 9 286
1869 NA NA 15:00:00 TS 24.11 -74.97 277 235 _____________P -1 24.11 -74.97 TS 55 8 284
1869 NA NA 18:00:00 TS 24.20 -75.40 235 195 _____________O -1 24.20 -75.40 TS 55 8 280
1869 NA NA 21:00:00 TS 24.25 -75.85 185 143 _____________P -1 24.25 -75.85 TS 57 8 277
1869 NA NA 1869-10-02 00:00:00 TS 24.30 -76.30 143 101 _____________O -1 24.30 -76.30 TS 60 8 280
1869 NA NA 03:00:00 TS 24.40 -76.76 91 50 _____________P -1 24.40 -76.76 TS 60 8 284
1869 NA NA 06:00:00 TS 24.50 -77.20 50 10 _____________O -1 24.50 -77.20 TS 60 8 277
1869 NA NA 09:00:00 TS 24.50 -77.65 0 0 _____________P -1 24.50 -77.65 TS 60 7 278
1869 NA NA 12:00:00 TS 24.60 -78.00 0 0 _____________O -1 24.60 -78.00 TS 60 7 314
1869 NA NA 15:00:00 TS 24.96 -78.18 10 10 _____________P -1 24.96 -78.18 TS 60 9 349
1869 NA NA 18:00:00 TS 25.50 -78.20 45 45 _____________O -1 25.50 -78.20 TS 60 12 4
1869 NA NA 21:00:00 TS 26.13 -78.09 111 111 _____________P -1 26.13 -78.09 TS 62 13 12
1869 NA NA 1869-10-03 00:00:00 TS 26.80 -77.90 190 190 _____________O -1 26.80 -77.90 HU 65 13 12
1869 NA NA 03:00:00 TS 27.40 -77.79 227 227 _____________P -1 27.40 -77.79 HU 70 12 12
1869 NA NA 06:00:00 TS 28.00 -77.60 270 270 _____________O -1 28.00 -77.60 HU 75 982 14 23
1869 NA NA 09:00:00 TS 28.64 -77.19 322 322 _____________P -1 28.64 -77.19 HU 75 15 31
1869 NA NA 12:00:00 TS 29.30 -76.70 380 380 _____________O -1 29.30 -76.70 HU 75 15 31
1869 NA NA 15:00:00 TS 29.94 -76.28 436 417 _____________P -1 29.94 -76.28 HU 75 15 28
1869 NA NA 18:00:00 TS 30.60 -75.90 417 375 _____________O -1 30.60 -75.90 HU 75 14 25
1869 NA NA 21:00:00 TS 31.21 -75.59 375 341 _____________P -1 31.21 -75.59 HU 77 13 23
1869 NA NA 1869-10-04 00:00:00 TS 31.83 -75.30 90 hurdat_atl 341 270 O____________O hurdat_atl AL101869 31.50 -75.50 HU 90 2 32.00 -75.20 HU 80 21 30
1869 NA NA 03:00:00 TS 33.05 -74.36 263 246 P____________P AL101869 32.98 -74.17 HU 90 2 33.13 -74.55 HU 82 31 32
1869 NA NA 06:00:00 TS 34.50 -73.32 90 hurdat_atl 246 236 O____________O hurdat_atl AL101869 34.50 -73.00 HU 90 2 34.50 -73.80 HU 85 34 28
1869 NA NA 09:00:00 TS 36.05 -72.46 271 271 P____________P AL101869 36.10 -72.13 HU 90 2 35.96 -73.12 HU 85 34 21
1869 NA NA 12:00:00 TS 37.63 -71.83 90 hurdat_atl 298 224 O____________O hurdat_atl AL101869 37.70 -71.50 HU 90 2 37.50 -72.50 HU 85 31 16
1869 NA NA 15:00:00 TS 39.05 -71.36 224 111 P____________P AL101869 39.13 -70.97 HU 90 2 38.88 -72.14 HU 85 31 14
1869 NA NA 18:00:00 TS 40.63 -70.90 90 hurdat_atl 100 33 O____________O hurdat_atl AL101869 40.70 -70.60 HU 90 2 40.50 -71.50 HU 85 34 13
1869 NA NA 19:00:00 TS 41.27 -70.69 90 hurdat_atl 22 0 O____________P hurdat_atl AL101869 41.30 -70.50 L HU 90 2 41.21 -71.06 HU 83 36 17
1869 NA NA 20:00:00 TS 41.79 -70.44 90 hurdat_atl 8 8 O____________P hurdat_atl AL101869 41.70 -70.40 L HU 90 2 41.97 -70.52 HU 81 38 17
1869 NA NA 21:00:00 TS 42.49 -70.18 34 0 P____________P AL101869 42.35 -70.30 HU 90 2 42.76 -69.92 HU 80 44 16
1869 NA NA 23:00:00 TS 43.90 -69.61 90 hurdat_atl 0 0 O____________P hurdat_atl AL101869 43.70 -70.10 L HU 90 2 44.30 -68.63 HU 76 39 18
1869 NA NA 1869-10-05 00:00:00 MX 44.33 -69.33 80 hurdat_atl 0 0 O____________O hurdat_atl AL101869 44.00 -70.00 HU 80 1 45.00 -68.00 EX 75 30 24
1869 NA NA 03:00:00 MX 45.75 -68.45 0 0 P____________P AL101869 45.21 -69.46 HU 70 1 46.83 -66.42 EX 62 30 28
1869 NA NA 06:00:00 MX 47.00 -67.33 60 hurdat_atl 0 0 O____________O hurdat_atl AL101869 46.50 -68.50 TS 60 0 48.00 -65.00 EX 50 26 41
1869 NA NA 09:00:00 MX 47.68 -65.98 0 0 P____________P AL101869 47.39 -67.12 TS 55 0 48.27 -63.70 EX 50 22 62
1869 NA NA 12:00:00 MX 48.00 -64.50 50 hurdat_atl 31 O____________O hurdat_atl AL101869 48.00 -65.50 TS 50 0 48.00 -62.50 EX 50 21 72